createdAt,value
2019-04-14T00:00:46.877Z,6.83
2019-04-14T00:03:26.453Z,6.80
2019-04-14T00:06:02.705Z,6.33
2019-04-14T00:08:34.841Z,6.83
2019-04-14T00:11:06.261Z,6.20
2019-04-14T00:13:39.263Z,6.40
2019-04-14T00:16:11.748Z,6.67
2019-04-14T00:18:44.654Z,6.37
2019-04-14T00:21:17.553Z,6.47
2019-04-14T00:23:50.148Z,6.33
2019-04-14T00:26:33.528Z,6.80
2019-04-14T00:29:06.691Z,6.20
2019-04-14T00:31:39.107Z,6.10
2019-04-14T00:34:35.495Z,6.27
2019-04-14T00:37:25.202Z,6.23
2019-04-14T00:40:01.942Z,6.58
2019-04-14T00:42:43.750Z,6.10
2019-04-14T00:45:37.905Z,6.13
2019-04-14T00:48:15.810Z,6.37
2019-04-14T00:50:45.156Z,6.40
2019-04-14T00:53:16.926Z,6.30
2019-04-14T00:55:48.949Z,6.83
2019-04-14T00:58:21.477Z,6.50
2019-04-14T01:00:53.830Z,6.70
2019-04-14T01:03:25.164Z,6.40
2019-04-14T01:05:56.907Z,6.60
2019-04-14T01:08:29.216Z,6.27
2019-04-14T01:11:01.023Z,6.83
2019-04-14T01:13:33.273Z,6.03
2019-04-14T01:16:11.574Z,6.37
2019-04-14T01:18:38.658Z,6.13
2019-04-14T01:21:11.030Z,6.47
2019-04-14T01:23:43.453Z,6.83
2019-04-14T01:26:15.938Z,6.03
2019-04-14T01:28:48.334Z,6.83
2019-04-14T01:31:20.545Z,7.13
2019-04-14T01:33:51.856Z,6.90
2019-04-14T01:36:23.607Z,6.47
2019-04-14T01:38:55.728Z,6.83
2019-04-14T01:41:28.217Z,6.37
2019-04-14T01:44:00.326Z,6.85
2019-04-14T01:46:34.013Z,6.40
2019-04-14T01:49:05.127Z,6.60
2019-04-14T01:51:48.964Z,7.37
2019-04-14T01:54:40.975Z,7.15
2019-04-14T01:57:29.057Z,7.40
2019-04-14T02:00:20.795Z,7.15
2019-04-14T02:02:53.089Z,7.17
2019-04-14T02:05:25.708Z,7.27
2019-04-14T02:07:58.008Z,6.93
2019-04-14T02:10:30.502Z,6.67
2019-04-14T02:13:02.870Z,7.77
2019-04-14T02:15:35.204Z,7.23
2019-04-14T02:18:07.836Z,8.00
2019-04-14T02:20:40.274Z,8.03
2019-04-14T02:23:12.593Z,7.67
2019-04-14T02:25:45.096Z,7.67
2019-04-14T02:28:17.647Z,7.80
2019-04-14T02:31:00.127Z,8.23
2019-04-14T02:33:59.832Z,8.60
2019-04-14T02:38:55.275Z,7.43
2019-04-14T02:44:04.182Z,7.90
2019-04-14T02:46:47.781Z,7.93
2019-04-14T02:49:08.187Z,7.67
2019-04-14T02:51:40.083Z,8.10
2019-04-14T02:54:22.858Z,8.57
2019-04-14T02:59:23.019Z,7.70
2019-04-14T03:02:09.994Z,8.25
2019-04-14T03:04:25.783Z,8.47
2019-04-14T03:12:09.672Z,7.67
2019-04-14T03:17:30.232Z,8.57
2019-04-14T03:23:14.789Z,8.70
2019-04-14T03:25:49.790Z,8.90
2019-04-14T03:39:00.000Z,9.23
2019-04-14T03:43:48.311Z,9.33
2019-04-14T03:52:08.733Z,11.20
2019-04-14T03:54:06.241Z,10.47
2019-04-14T03:56:55.711Z,10.30
2019-04-14T03:59:28.205Z,10.60
2019-04-14T04:02:00.767Z,9.63
2019-04-14T04:04:33.665Z,10.70
2019-04-14T04:07:06.164Z,10.93
2019-04-14T04:09:41.777Z,11.00
2019-04-14T04:12:13.963Z,10.77
2019-04-14T04:14:46.392Z,11.40
2019-04-14T04:17:43.087Z,10.73
2019-04-14T04:20:30.623Z,11.08
2019-04-14T04:23:29.804Z,11.15
2019-04-14T04:26:19.260Z,10.50
2019-04-14T04:29:02.797Z,11.33
2019-04-14T04:31:53.047Z,10.83
2019-04-14T04:34:44.519Z,10.90
2019-04-14T04:37:50.467Z,10.13
2019-04-14T04:40:28.935Z,10.57
2019-04-14T04:43:01.218Z,11.20
2019-04-14T04:45:34.111Z,11.18
2019-04-14T04:48:08.904Z,9.67
2019-04-14T04:50:41.047Z,10.50
2019-04-14T04:53:13.737Z,10.07
2019-04-14T04:55:46.072Z,10.00
2019-04-14T04:58:17.865Z,10.63
2019-04-14T05:00:51.455Z,10.13
2019-04-14T05:03:23.247Z,9.73
2019-04-14T05:06:50.540Z,9.67
2019-04-14T05:09:44.801Z,11.53
2019-04-14T05:12:39.565Z,10.60
2019-04-14T05:15:33.734Z,11.15
2019-04-14T05:18:05.044Z,9.85
2019-04-14T05:20:37.698Z,10.30
2019-04-14T05:23:10.248Z,10.53
2019-04-14T05:25:43.025Z,9.87
2019-04-14T05:28:15.468Z,10.55
2019-04-14T05:30:48.160Z,10.50
2019-04-14T05:33:20.692Z,10.23
2019-04-14T05:35:53.095Z,11.80
2019-04-14T05:38:25.775Z,11.77
2019-04-14T05:40:58.246Z,10.63
2019-04-14T05:43:38.373Z,11.63
2019-04-14T05:46:06.095Z,10.90
2019-04-14T05:48:38.066Z,11.37
2019-04-14T05:51:11.013Z,11.10
2019-04-14T05:53:43.935Z,11.20
2019-04-14T05:56:16.434Z,11.47
2019-04-14T05:58:49.228Z,10.70
2019-04-14T06:01:22.561Z,10.40
2019-04-14T06:04:11.363Z,10.82
2019-04-14T06:06:43.627Z,10.50
2019-04-14T06:09:15.637Z,11.17
2019-04-14T06:11:46.898Z,11.20
2019-04-14T06:14:18.227Z,10.50
2019-04-14T06:16:50.496Z,11.70
2019-04-14T06:19:21.797Z,10.35
2019-04-14T06:21:53.731Z,10.63
2019-04-14T06:24:25.806Z,11.20
2019-04-14T06:26:57.135Z,12.10
2019-04-14T06:29:28.691Z,11.17
2019-04-14T06:32:19.159Z,10.60
2019-04-14T06:35:10.092Z,10.50
2019-04-14T06:37:53.765Z,10.27
2019-04-14T06:40:26.594Z,10.53
2019-04-14T06:42:58.962Z,10.43
2019-04-14T06:45:30.346Z,9.83
2019-04-14T06:48:02.490Z,9.90
2019-04-14T06:50:34.239Z,11.30
2019-04-14T06:53:06.098Z,10.87
2019-04-14T06:55:37.476Z,10.20
2019-04-14T06:58:10.417Z,10.60
2019-04-14T07:00:41.972Z,10.77
2019-04-14T07:03:13.655Z,10.63
2019-04-14T07:05:46.010Z,9.47
2019-04-14T07:08:21.280Z,10.48
2019-04-14T07:10:53.476Z,10.17
2019-04-14T07:13:26.044Z,10.53
2019-04-14T07:15:58.457Z,10.17
2019-04-14T07:18:30.283Z,10.23
2019-04-14T07:21:02.530Z,10.53
2019-04-14T07:23:34.734Z,9.63
2019-04-14T07:26:07.187Z,10.30
2019-04-14T07:28:39.115Z,10.20
2019-04-14T07:31:22.323Z,9.53
2019-04-14T07:34:13.024Z,10.63
2019-04-14T07:37:03.871Z,11.90
2019-04-14T07:39:49.764Z,10.70
2019-04-14T07:42:33.142Z,11.07
2019-04-14T07:45:10.189Z,10.37
2019-04-14T07:47:59.652Z,11.40
2019-04-14T07:50:54.281Z,9.60
2019-04-14T07:53:35.833Z,10.23
2019-04-14T07:56:17.659Z,10.77
2019-04-14T07:59:08.528Z,10.37
2019-04-14T08:01:49.912Z,9.83
2019-04-14T08:04:33.274Z,9.30
2019-04-14T08:07:06.546Z,9.60
2019-04-14T08:09:38.760Z,10.45
2019-04-14T08:12:10.326Z,10.20
2019-04-14T08:14:41.842Z,10.70
2019-04-14T08:17:13.258Z,10.03
2019-04-14T08:19:45.130Z,10.15
2019-04-14T08:22:16.864Z,10.18
2019-04-14T08:24:48.662Z,10.20
2019-04-14T08:27:20.523Z,10.20
2019-04-14T08:29:51.947Z,10.67
2019-04-14T08:32:23.832Z,10.90
2019-04-14T08:34:55.317Z,10.57
2019-04-14T08:37:27.748Z,10.33
2019-04-14T08:40:02.672Z,11.00
2019-04-14T08:42:52.144Z,10.90
2019-04-14T08:45:45.559Z,10.53
2019-04-14T08:48:35.281Z,10.67
2019-04-14T08:51:24.857Z,10.57
2019-04-14T08:54:01.946Z,10.20
2019-04-14T08:56:40.430Z,10.75
2019-04-14T08:59:33.343Z,10.10
2019-04-14T09:02:10.533Z,10.63
2019-04-14T09:04:58.635Z,10.30
2019-04-14T09:07:42.580Z,10.17
2019-04-14T09:10:24.067Z,10.13
2019-04-14T09:12:57.160Z,10.07
2019-04-14T09:15:29.257Z,11.00
2019-04-14T09:18:01.034Z,11.07
2019-04-14T09:20:33.458Z,10.50
2019-04-14T09:23:04.814Z,10.43
2019-04-14T09:25:37.023Z,10.40
2019-04-14T09:28:08.526Z,10.63
2019-04-14T09:30:40.001Z,10.57
2019-04-14T09:33:12.053Z,10.13
2019-04-14T09:35:44.675Z,10.95
2019-04-14T09:38:16.386Z,11.20
2019-04-14T09:40:47.926Z,10.70
2019-04-14T09:43:19.380Z,10.07
2019-04-14T09:45:51.136Z,9.93
2019-04-14T09:48:22.910Z,9.70
2019-04-14T09:51:04.278Z,9.33
2019-04-14T09:53:28.224Z,11.27
2019-04-14T09:56:00.975Z,10.30
2019-04-14T09:58:32.804Z,9.87
2019-04-14T10:01:04.315Z,10.07
2019-04-14T10:03:35.861Z,10.33
2019-04-14T10:06:07.709Z,9.73
2019-04-14T10:08:39.864Z,10.70
2019-04-14T10:11:11.191Z,10.40
2019-04-14T10:13:42.979Z,10.67
2019-04-14T10:16:16.340Z,11.78
2019-04-14T10:18:48.165Z,11.33
2019-04-14T10:21:19.541Z,10.97
2019-04-14T10:23:50.995Z,11.53
2019-04-14T10:26:22.345Z,12.60
2019-04-14T10:28:54.007Z,11.00
2019-04-14T10:31:26.476Z,12.00
2019-04-14T10:33:57.967Z,11.22
2019-04-14T10:36:31.899Z,11.88
2019-04-14T10:39:05.102Z,11.37
2019-04-14T10:41:37.374Z,10.80
2019-04-14T10:44:08.899Z,11.97
2019-04-14T10:46:41.007Z,11.23
2019-04-14T10:49:13.103Z,10.47
2019-04-14T10:51:44.874Z,11.47
2019-04-14T10:54:16.697Z,11.18
2019-04-14T10:56:48.457Z,10.23
2019-04-14T10:59:19.815Z,10.43
2019-04-14T11:01:51.198Z,10.45
2019-04-14T11:04:22.719Z,10.50
2019-04-14T11:07:04.287Z,9.55
2019-04-14T11:09:36.063Z,10.67
2019-04-14T11:12:08.040Z,10.23
2019-04-14T11:14:39.772Z,10.20
2019-04-14T11:17:11.305Z,10.05
2019-04-14T11:19:42.561Z,10.73
2019-04-14T11:22:14.326Z,10.50
2019-04-14T11:24:46.485Z,9.73
2019-04-14T11:27:18.113Z,10.57
2019-04-14T11:29:53.866Z,10.77
2019-04-14T11:32:57.401Z,10.23
2019-04-14T11:35:34.596Z,10.30
2019-04-14T11:38:24.278Z,9.50
2019-04-14T11:40:58.171Z,9.10
2019-04-14T11:43:30.173Z,9.77
2019-04-14T11:46:03.782Z,8.70
2019-04-14T11:48:35.703Z,9.75
2019-04-14T11:51:07.126Z,8.63
2019-04-14T11:53:39.119Z,8.70
2019-04-14T11:56:13.397Z,8.97
2019-04-14T11:58:45.384Z,8.83
2019-04-14T12:01:32.613Z,9.60
2019-04-14T12:04:10.267Z,9.43
2019-04-14T12:06:59.610Z,9.30
2019-04-14T12:09:34.271Z,9.87
2019-04-14T12:12:10.378Z,10.00
2019-04-14T12:14:41.951Z,9.88
2019-04-14T12:17:14.015Z,9.43
2019-04-14T12:19:45.812Z,9.47
2019-04-14T12:22:17.656Z,8.70
2019-04-14T12:24:49.608Z,9.53
2019-04-14T12:27:21.352Z,10.27
2019-04-14T12:30:01.056Z,10.17
2019-04-14T12:32:36.301Z,9.93
2019-04-14T12:35:10.257Z,10.73
2019-04-14T12:37:42.637Z,10.98
2019-04-14T12:40:15.634Z,10.90
2019-04-14T12:43:15.567Z,11.50
2019-04-14T12:46:09.870Z,11.80
2019-04-14T12:48:50.525Z,11.30
2019-04-14T12:51:29.380Z,11.97
2019-04-14T12:59:07.422Z,12.23
2019-04-14T13:02:39.926Z,12.37
2019-04-14T13:13:03.622Z,12.60
2019-04-14T13:15:35.639Z,11.87
2019-04-14T13:18:07.075Z,13.07
2019-04-14T13:20:39.347Z,12.80
2019-04-14T13:23:12.671Z,12.98
2019-04-14T13:25:44.737Z,13.90
2019-04-14T13:28:21.461Z,14.20
2019-04-14T13:31:14.801Z,14.45
2019-04-14T13:33:46.522Z,13.88
2019-04-14T13:36:18.140Z,14.67
2019-04-14T13:38:50.196Z,15.13
2019-04-14T13:41:21.764Z,13.97
2019-04-14T13:43:53.135Z,14.30
2019-04-14T13:46:25.062Z,14.70
2019-04-14T13:48:56.990Z,13.70
2019-04-14T13:51:29.602Z,14.47
2019-04-14T13:54:01.986Z,14.47
2019-04-14T13:56:34.054Z,14.80
2019-04-14T13:59:05.782Z,14.23
2019-04-14T14:01:37.085Z,14.47
2019-04-14T14:04:09.489Z,15.50
2019-04-14T14:06:40.621Z,14.80
2019-04-14T14:09:12.629Z,15.23
2019-04-14T14:12:00.344Z,14.85
2019-04-14T14:14:46.887Z,15.33
2019-04-14T14:17:39.848Z,14.73
2019-04-14T14:20:18.280Z,14.95
2019-04-14T14:23:00.573Z,15.10
2019-04-14T14:25:46.005Z,15.63
2019-04-14T14:28:17.334Z,14.37
2019-04-14T14:30:48.625Z,15.83
2019-04-14T14:33:20.650Z,16.28
2019-04-14T14:35:52.053Z,14.93
2019-04-14T14:38:24.118Z,16.00
2019-04-14T14:40:57.427Z,15.07
2019-04-14T14:43:28.811Z,15.40
2019-04-14T14:46:23.980Z,16.07
2019-04-14T14:49:03.849Z,15.10
2019-04-14T14:51:47.763Z,15.83
2019-04-14T14:54:20.086Z,15.13
2019-04-14T14:56:51.816Z,15.35
2019-04-14T14:59:23.526Z,15.30
2019-04-14T15:01:56.529Z,15.17
2019-04-14T15:04:29.295Z,14.20
2019-04-14T15:07:01.075Z,15.43
2019-04-14T15:09:32.699Z,14.53
2019-04-14T15:12:04.354Z,15.07
2019-04-14T15:14:36.699Z,14.93
2019-04-14T15:17:08.630Z,15.00
2019-04-14T15:19:42.870Z,14.37
2019-04-14T15:22:15.531Z,14.73
2019-04-14T15:24:47.027Z,14.70
2019-04-14T15:27:19.990Z,13.83
2019-04-14T15:29:51.428Z,14.90
2019-04-14T15:32:24.194Z,14.55
2019-04-14T15:34:56.900Z,14.30
2019-04-14T15:37:31.771Z,13.63
2019-04-14T15:40:03.468Z,13.57
2019-04-14T15:42:35.195Z,12.78
2019-04-14T15:45:07.468Z,14.00
2019-04-14T15:47:40.252Z,14.10
2019-04-14T15:50:12.248Z,13.30
2019-04-14T15:52:44.028Z,14.47
2019-04-14T15:55:17.928Z,13.13
2019-04-14T15:58:04.060Z,13.73
2019-04-14T16:00:52.108Z,13.20
2019-04-14T16:03:35.749Z,13.78
2019-04-14T16:06:28.675Z,14.23
2019-04-14T16:09:28.896Z,14.30
2019-04-14T16:12:12.742Z,13.32
2019-04-14T16:14:54.325Z,14.97
2019-04-14T16:17:45.092Z,13.70
2019-04-14T16:20:19.693Z,14.47
2019-04-14T16:22:52.031Z,13.30
2019-04-14T16:25:26.762Z,13.60
2019-04-14T16:28:10.852Z,13.73
2019-04-14T16:31:08.838Z,14.13
2019-04-14T16:33:58.482Z,14.50
2019-04-14T16:36:31.369Z,13.63
2019-04-14T16:39:05.343Z,13.88
2019-04-14T16:41:36.419Z,14.83
2019-04-14T16:44:07.528Z,15.57
2019-04-14T16:46:39.386Z,13.73
2019-04-14T16:49:10.766Z,13.93
2019-04-14T16:51:48.124Z,12.93
2019-04-14T16:54:30.614Z,12.70
2019-04-14T16:57:33.528Z,13.63
2019-04-14T17:00:05.968Z,14.40
2019-04-14T17:02:37.775Z,12.90
2019-04-14T17:05:09.708Z,14.00
2019-04-14T17:07:41.194Z,13.63
2019-04-14T17:10:13.419Z,14.37
2019-04-14T17:12:45.501Z,14.63
2019-04-14T17:15:44.685Z,14.67
2019-04-14T17:18:42.337Z,15.37
2019-04-14T17:21:32.053Z,13.47
2019-04-14T17:24:22.366Z,13.93
2019-04-14T17:27:17.618Z,13.63
2019-04-14T17:30:02.766Z,13.70
2019-04-14T17:32:50.399Z,14.37
2019-04-14T17:35:41.243Z,15.60
2019-04-14T17:38:26.608Z,14.45
2019-04-14T17:41:23.154Z,13.90
2019-04-14T17:44:01.089Z,13.53
2019-04-14T17:47:03.657Z,14.73
2019-04-14T17:49:47.317Z,13.60
2019-04-14T17:52:38.975Z,14.40
2019-04-14T17:55:25.203Z,15.17
2019-04-14T17:58:16.435Z,14.53
2019-04-14T18:00:54.759Z,14.70
2019-04-14T18:03:54.595Z,15.00
2019-04-14T18:06:45.359Z,15.87
2019-04-14T18:09:47.433Z,17.62
2019-04-14T18:12:29.832Z,18.80
2019-04-14T18:15:15.836Z,18.77
2019-04-14T18:17:57.957Z,18.48
2019-04-14T18:20:32.853Z,17.30
2019-04-14T18:23:04.891Z,15.90
2019-04-14T18:25:36.812Z,17.33
2019-04-14T18:28:35.688Z,17.70
2019-04-14T18:31:26.275Z,16.30
2019-04-14T18:34:25.819Z,15.80
2019-04-14T18:37:16.839Z,15.28
2019-04-14T18:40:10.166Z,16.90
2019-04-14T18:43:00.398Z,15.97
2019-04-14T18:45:36.276Z,15.03
2019-04-14T18:48:25.874Z,15.20
2019-04-14T18:51:19.138Z,15.13
2019-04-14T18:54:04.438Z,16.03
2019-04-14T18:56:55.027Z,15.40
2019-04-14T18:59:50.935Z,17.05
2019-04-14T19:02:22.556Z,15.90
2019-04-14T19:04:54.368Z,15.50
2019-04-14T19:07:25.825Z,15.47
2019-04-14T19:09:57.906Z,17.93
2019-04-14T19:12:48.825Z,19.33
2019-04-14T19:15:34.331Z,22.20
2019-04-14T19:18:10.883Z,22.50
2019-04-14T19:20:45.704Z,24.30
2019-04-14T19:23:17.190Z,25.73
2019-04-14T19:25:50.521Z,26.10
2019-04-14T19:28:21.803Z,27.17
2019-04-14T19:30:54.685Z,28.63
2019-04-14T19:33:26.616Z,20.80
2019-04-14T19:36:00.023Z,17.47
2019-04-14T19:38:32.160Z,14.60
2019-04-14T19:41:04.121Z,15.13
2019-04-14T19:43:36.021Z,16.13
2019-04-14T19:46:07.581Z,16.50
2019-04-14T19:48:39.550Z,15.73
2019-04-14T19:51:12.467Z,15.68
2019-04-14T19:53:45.957Z,15.65
2019-04-14T19:56:18.081Z,14.87
2019-04-14T19:58:50.111Z,13.53
2019-04-14T20:01:21.871Z,15.43
2019-04-14T20:03:53.130Z,14.03
2019-04-14T20:06:24.647Z,13.57
2019-04-14T20:08:56.465Z,14.05
2019-04-14T20:11:28.199Z,13.80
2019-04-14T20:14:00.241Z,14.70
2019-04-14T20:16:59.982Z,13.93
2019-04-14T20:19:56.797Z,14.47
2019-04-14T20:22:56.210Z,15.03
2019-04-14T20:26:05.417Z,15.55
2019-04-14T20:28:59.288Z,15.13
2019-04-14T20:31:50.811Z,15.20
2019-04-14T20:34:28.592Z,16.86
2019-04-14T20:37:00.169Z,16.40
2019-04-14T20:39:32.762Z,15.98
2019-04-14T20:42:07.463Z,16.52
2019-04-14T20:44:38.902Z,16.48
2019-04-14T20:47:10.784Z,15.57
2019-04-14T20:49:42.490Z,16.12
2019-04-14T20:52:13.768Z,15.23
2019-04-14T20:54:45.004Z,15.90
2019-04-14T20:57:16.335Z,14.90
2019-04-14T20:59:47.599Z,15.03
2019-04-14T21:05:40.834Z,14.60
2019-04-14T21:08:50.003Z,13.72
2019-04-14T21:11:35.680Z,14.40
2019-04-14T21:14:29.308Z,13.78
2019-04-14T21:17:07.149Z,13.20
2019-04-14T21:19:53.149Z,12.40
2019-04-14T21:22:35.499Z,12.18
2019-04-14T21:25:25.926Z,10.43
2019-04-14T21:28:15.007Z,12.67
2019-04-14T21:31:11.976Z,12.10
2019-04-14T21:34:02.115Z,11.10
2019-04-14T21:36:47.333Z,11.27
2019-04-14T21:39:49.878Z,11.40
2019-04-14T21:42:21.968Z,10.07
2019-04-14T21:44:53.720Z,9.50
2019-04-14T21:47:25.134Z,10.18
2019-04-14T21:49:58.977Z,9.00
2019-04-14T21:52:34.881Z,8.85
2019-04-14T21:55:07.236Z,8.47
2019-04-14T21:57:46.564Z,8.77
2019-04-14T22:00:28.210Z,8.50
2019-04-14T22:03:21.807Z,8.17
2019-04-14T22:06:16.419Z,7.58
2019-04-14T22:08:50.552Z,7.27
2019-04-14T22:11:26.222Z,7.17
2019-04-14T22:13:57.962Z,7.70
2019-04-14T22:16:30.052Z,7.10
2019-04-14T22:19:01.887Z,7.43
2019-04-14T22:21:33.820Z,6.80
2019-04-14T22:24:05.190Z,6.63
2019-04-14T22:26:36.632Z,6.90
2019-04-14T22:29:10.674Z,6.63
2019-04-14T22:31:42.119Z,5.97
2019-04-14T22:34:13.777Z,5.53
2019-04-14T22:36:45.150Z,5.80
2019-04-14T22:39:17.355Z,5.67
2019-04-14T22:41:49.098Z,5.10
2019-04-14T22:44:20.856Z,5.07
2019-04-14T22:46:52.463Z,5.17
2019-04-14T22:49:23.816Z,5.78
2019-04-14T22:51:55.884Z,5.43
2019-04-14T22:54:27.915Z,5.47
2019-04-14T22:56:59.325Z,5.33
2019-04-14T22:59:31.115Z,4.73
2019-04-14T23:02:10.366Z,5.28
2019-04-14T23:05:11.198Z,5.17
2019-04-14T23:07:55.301Z,5.23
2019-04-14T23:10:41.914Z,5.10
2019-04-14T23:13:22.752Z,5.53
2019-04-14T23:16:20.165Z,5.83
2019-04-14T23:18:58.837Z,6.00
2019-04-14T23:21:49.068Z,6.87
2019-04-14T23:24:26.615Z,6.83
2019-04-14T23:26:58.058Z,6.23
2019-04-14T23:29:30.063Z,5.73
2019-04-14T23:32:01.567Z,5.80
2019-04-14T23:34:33.297Z,5.42
2019-04-14T23:37:05.180Z,5.30
2019-04-14T23:39:36.594Z,5.93
2019-04-14T23:42:10.727Z,5.13
2019-04-14T23:44:42.487Z,4.87
2019-04-14T23:47:13.810Z,5.50
2019-04-14T23:49:45.068Z,5.30
2019-04-14T23:52:16.480Z,4.80
2019-04-14T23:54:47.751Z,5.03
2019-04-14T23:57:19.104Z,5.20
2019-04-14T23:59:50.437Z,4.70
